Time;durP1;ratioP1;P1;durP2;ratioP2;P2;SDS_P1;SDS_P2;PMS_P1;PMS_P2;Temp;Humidity;BMP_temperature;BMP_pressure;BME280_temperature;BME280_humidity;BME280_pressure;Samples;Min_cycle;Max_cycle;Signal;HPM_P1;HPM_P2
2022/03/28 00:00:56;;;;;;;17.45;10.10;;;;;;;9.68;37.67;100949.75;7846392;31;38969;-71
2022/03/28 00:05:16;;;;;;;19.98;10.18;;;;;;;9.42;38.09;100947.50;7846666;31;40576;-72
2022/03/28 00:09:32;;;;;;;17.98;10.75;;;;;;;9.31;37.77;100947.28;7846916;31;38573;-72
2022/03/28 00:13:48;;;;;;;16.98;9.70;;;;;;;9.25;38.33;100952.81;7846831;31;36789;-72
2022/03/28 00:18:07;;;;;;;18.42;10.05;;;;;;;9.21;38.73;100956.00;7846802;31;39238;-71
2022/03/28 00:22:23;;;;;;;22.10;9.57;;;;;;;9.18;38.52;100945.59;7846614;31;39901;-71
2022/03/28 00:26:39;;;;;;;18.52;9.30;;;;;;;9.23;38.29;100949.47;7846292;31;38752;-72
2022/03/28 00:30:55;;;;;;;17.25;9.95;;;;;;;9.06;38.66;100946.63;7846549;31;37074;-72
2022/03/28 00:35:12;;;;;;;27.85;9.38;;;;;;;8.97;39.17;100940.72;7846220;31;39342;-72
2022/03/28 00:39:28;;;;;;;20.20;10.15;;;;;;;8.76;39.83;100939.31;7846400;31;40012;-71
2022/03/28 00:44:05;;;;;;;16.27;9.68;;;;;;;8.78;39.32;100929.91;7846086;31;38808;-72
2022/03/28 00:48:21;;;;;;;18.92;9.75;;;;;;;8.82;39.16;100927.53;7846108;31;37148;-71
2022/03/28 00:52:38;;;;;;;17.15;10.00;;;;;;;8.71;40.09;100921.00;7844900;31;39977;-71
2022/03/28 00:56:55;;;;;;;18.48;9.43;;;;;;;8.76;39.46;100921.16;7845955;31;39905;-71
2022/03/28 01:01:11;;;;;;;15.10;9.20;;;;;;;8.66;39.50;100912.72;7844495;31;38058;-71
2022/03/28 01:05:27;;;;;;;17.70;9.32;;;;;;;8.86;39.16;100912.41;7845828;31;37191;-71
2022/03/28 01:09:44;;;;;;;22.70;9.43;;;;;;;8.84;39.35;100914.53;7844344;31;39433;-71
2022/03/28 01:14:00;;;;;;;17.65;9.23;;;;;;;9.09;39.21;100906.19;7849163;31;39711;-72
2022/03/28 01:18:16;;;;;;;14.82;8.52;;;;;;;8.87;39.26;100902.38;7849258;31;37847;-72
2022/03/28 01:22:32;;;;;;;16.45;8.70;;;;;;;8.84;39.12;100898.22;7849089;31;37012;-71
2022/03/28 01:26:50;;;;;;;17.10;8.82;;;;;;;8.82;39.56;100894.91;7848360;31;39312;-72
2022/03/28 01:31:07;;;;;;;18.50;8.43;;;;;;;8.71;40.02;100884.81;7847731;31;40729;-72
2022/03/28 01:35:28;;;;;;;18.10;9.18;;;;;;;8.73;39.75;100883.53;7848583;31;37658;-72
2022/03/28 01:39:44;;;;;;;16.60;9.00;;;;;;;8.77;39.46;100881.19;7848972;31;37459;-71
2022/03/28 01:44:00;;;;;;;15.43;8.52;;;;;;;8.57;39.94;100882.31;7848439;31;39700;-71
2022/03/28 01:48:16;;;;;;;15.70;8.15;;;;;;;8.56;39.51;100883.38;7848786;31;39796;-72
2022/03/28 01:52:32;;;;;;;18.33;8.13;;;;;;;8.66;39.19;100877.37;7848567;31;37795;-72
2022/03/28 01:56:48;;;;;;;12.48;7.30;;;;;;;8.62;39.19;100877.03;7848418;31;36654;-72
2022/03/28 02:01:04;;;;;;;15.68;8.02;;;;;;;8.76;39.13;100864.03;7848522;31;39691;-72
2022/03/28 02:05:20;;;;;;;13.45;8.10;;;;;;;8.52;40.04;100876.75;7847875;31;40760;-71
2022/03/28 02:09:36;;;;;;;17.40;8.45;;;;;;;8.52;40.98;100873.19;7848397;31;37836;-71
2022/03/28 02:13:52;;;;;;;13.30;8.77;;;;;;;8.53;40.89;100872.94;7848423;31;37765;-71
2022/03/28 02:18:09;;;;;;;15.98;8.27;;;;;;;8.28;41.53;100878.53;7848431;31;40005;-72
2022/03/28 02:22:25;;;;;;;17.17;8.80;;;;;;;8.19;41.42;100875.28;7847809;31;40917;-71
2022/03/28 02:26:41;;;;;;;15.38;7.82;;;;;;;8.17;40.99;100874.66;7847862;31;38681;-71
2022/03/28 02:30:57;;;;;;;14.45;7.55;;;;;;;8.02;41.05;100864.22;7848120;31;37021;-71
2022/03/28 02:35:14;;;;;;;18.27;7.57;;;;;;;8.11;40.79;100856.59;7847868;31;39132;-71
2022/03/28 02:39:30;;;;;;;14.05;8.10;;;;;;;8.21;40.98;100866.88;7847699;31;40737;-72
2022/03/28 02:43:46;;;;;;;15.20;7.10;;;;;;;8.12;41.53;100866.38;7847810;31;37785;-71
2022/03/28 02:48:04;;;;;;;15.68;8.48;;;;;;;7.94;41.68;100866.44;7847736;31;37867;-71
2022/03/28 02:52:22;;;;;;;16.33;8.55;;;;;;;7.93;41.71;100875.62;7846495;31;39692;-72
2022/03/28 02:56:38;;;;;;;14.32;8.13;;;;;;;7.79;43.54;100874.94;7847886;31;39689;-72
2022/03/28 03:00:54;;;;;;;16.87;8.25;;;;;;;7.82;43.13;100869.91;7847651;31;38625;-71
2022/03/28 03:05:11;;;;;;;15.85;7.57;;;;;;;7.68;42.51;100865.69;7847449;31;37071;-72
2022/03/28 03:09:27;;;;;;;15.48;8.63;;;;;;;7.53;42.26;100866.88;7847792;31;39378;-72
2022/03/28 03:13:44;;;;;;;15.50;8.02;;;;;;;7.60;42.18;100860.56;7847643;31;39880;-71
2022/03/28 03:18:00;;;;;;;15.32;7.95;;;;;;;7.47;42.36;100862.34;7846351;31;39155;-71
2022/03/28 03:22:16;;;;;;;18.15;7.62;;;;;;;7.47;41.62;100853.41;7847509;31;37788;-72
2022/03/28 03:26:33;;;;;;;16.42;8.43;;;;;;;7.56;41.01;100848.50;7847304;31;40080;-72
2022/03/28 03:30:49;;;;;;;14.43;7.95;;;;;;;7.46;42.96;100843.59;7847474;31;40810;-72
2022/03/28 03:35:07;;;;;;;13.27;7.62;;;;;;;7.68;42.58;100846.69;7846045;31;37992;-71
2022/03/28 03:39:25;;;;;;;15.77;8.10;;;;;;;7.58;42.20;100843.66;7847502;31;36720;-71
2022/03/28 03:43:41;;;;;;;15.10;8.30;;;;;;;7.47;42.77;100840.66;7846998;31;39283;-72
2022/03/28 03:47:57;;;;;;;16.02;8.15;;;;;;;7.28;42.98;100841.69;7847291;31;39847;-72
2022/03/28 03:52:13;;;;;;;15.50;7.37;;;;;;;7.36;42.02;100838.66;7846963;31;37938;-72
2022/03/28 03:56:30;;;;;;;13.55;7.32;;;;;;;7.24;41.86;100840.47;7847228;31;37860;-72
2022/03/28 04:00:46;;;;;;;16.02;7.75;;;;;;;7.39;41.13;100835.50;7847055;31;39975;-72
2022/03/28 04:05:02;;;;;;;16.35;8.50;;;;;;;7.24;41.57;100835.03;7846822;31;40543;-71
2022/03/28 04:09:18;;;;;;;13.90;7.80;;;;;;;7.04;42.59;100837.97;7846936;31;37494;-71
2022/03/28 04:13:35;;;;;;;17.08;8.27;;;;;;;7.12;42.66;100838.50;7846882;31;37103;-71
2022/03/28 04:17:51;;;;;;;12.60;7.78;;;;;;;6.88;45.55;100839.34;7846893;31;39354;-72
2022/03/28 04:22:07;;;;;;;15.50;7.47;;;;;;;6.95;44.22;100842.81;7846600;31;39959;-71
2022/03/28 04:26:23;;;;;;;18.77;8.63;;;;;;;6.92;44.46;100837.84;7846303;31;38710;-71
2022/03/28 04:30:39;;;;;;;20.35;9.07;;;;;;;6.99;44.66;100846.75;7846648;31;36933;-72
2022/03/28 04:34:55;;;;;;;14.07;8.13;;;;;;;7.06;44.66;100836.69;7846274;31;39218;-71
2022/03/28 04:39:11;;;;;;;23.77;8.70;;;;;;;6.90;44.55;100837.25;7846360;31;40701;-72
2022/03/28 04:43:30;;;;;;;15.43;8.30;;;;;;;7.14;43.91;100836.41;7846140;31;37964;-73
2022/03/28 04:47:46;;;;;;;18.60;8.27;;;;;;;7.18;44.28;100830.53;7846054;31;37220;-72
2022/03/28 04:52:03;;;;;;;21.58;8.40;;;;;;;7.23;42.34;100822.56;7845908;31;39289;-72
2022/03/28 04:56:19;;;;;;;14.95;7.35;;;;;;;7.09;42.15;100822.69;7845849;31;40121;-72
2022/03/28 05:00:35;;;;;;;16.77;9.00;;;;;;;6.76;43.97;100823.81;7845856;31;37951;-71
2022/03/28 05:04:51;;;;;;;14.70;8.38;;;;;;;6.82;45.48;100826.69;7845496;31;37030;-71
2022/03/28 05:09:07;;;;;;;18.08;8.70;;;;;;;6.77;46.10;100827.34;7845715;31;40006;-71
2022/03/28 05:13:25;;;;;;;19.50;8.68;;;;;;;6.62;45.73;100824.94;7845677;31;40009;-71
2022/03/28 05:17:41;;;;;;;16.55;8.82;;;;;;;6.79;44.87;100824.41;7845436;31;37890;-71
2022/03/28 05:21:58;;;;;;;15.35;8.70;;;;;;;6.87;45.21;100819.53;7845316;31;37819;-72
2022/03/28 05:26:14;;;;;;;16.73;10.02;;;;;;;6.81;45.81;100830.44;7845515;31;39737;-72
2022/03/28 05:30:30;;;;;;;16.67;9.40;;;;;;;6.82;46.93;100832.09;7844775;31;40740;-71
2022/03/28 05:34:46;;;;;;;18.65;10.18;;;;;;;7.02;46.42;100827.34;7844662;31;38455;-71
2022/03/28 05:39:02;;;;;;;17.48;10.50;;;;;;;7.17;46.62;100823.44;7844701;31;36997;-71
2022/03/28 05:43:19;;;;;;;20.25;9.05;;;;;;;7.06;47.60;100825.84;7830250;31;39240;-72
2022/03/28 05:47:35;;;;;;;20.73;9.45;;;;;;;7.69;52.48;100823.91;7844431;31;40024;-71
2022/03/28 05:51:52;;;;;;;14.10;8.32;;;;;;;7.70;46.55;100817.44;7844329;31;38708;-72
2022/03/28 05:56:08;;;;;;;20.17;8.50;;;;;;;7.95;45.46;100816.47;7845047;31;36671;-72
2022/03/28 06:00:25;;;;;;;25.02;8.73;;;;;;;7.78;44.56;100814.41;7848266;31;39261;-72
2022/03/28 06:04:41;;;;;;;22.27;10.18;;;;;;;8.04;43.85;100806.97;7848191;31;40779;-73
2022/03/28 06:08:57;;;;;;;20.15;9.23;;;;;;;7.96;45.07;100816.25;7848330;31;38610;-72
2022/03/28 06:13:16;;;;;;;16.17;9.70;;;;;;;7.93;45.36;100815.88;7848511;31;37800;-72
2022/03/28 06:17:32;;;;;;;21.90;9.73;;;;;;;7.96;45.02;100810.00;7848504;31;39084;-73
2022/03/28 06:21:48;;;;;;;17.65;9.38;;;;;;;7.76;46.03;100804.81;7848199;31;39614;-73
2022/03/28 06:26:05;;;;;;;19.27;10.18;;;;;;;8.08;45.69;100810.88;7848335;31;37814;-72
2022/03/28 06:30:21;;;;;;;18.02;9.38;;;;;;;8.27;45.23;100807.03;7847828;31;37129;-73
2022/03/28 06:34:37;;;;;;;24.42;9.10;;;;;;;8.44;44.96;100804.50;7848003;31;39151;-73
2022/03/28 06:38:53;;;;;;;17.12;9.20;;;;;;;8.72;44.14;100804.94;7848098;31;41525;-73
2022/03/28 06:43:09;;;;;;;16.60;9.80;;;;;;;8.75;44.08;100802.56;7847988;31;37780;-73
2022/03/28 06:47:25;;;;;;;18.12;9.55;;;;;;;8.91;43.04;100806.47;7847994;31;37189;-73
2022/03/28 06:51:42;;;;;;;19.17;9.25;;;;;;;8.72;43.17;100804.94;7847185;31;39929;-73
2022/03/28 06:55:58;;;;;;;18.37;9.43;;;;;;;9.15;42.78;100798.31;7847897;31;40012;-73
2022/03/28 07:00:15;;;;;;;17.05;8.23;;;;;;;9.66;41.81;100793.97;7847753;31;37839;-73
2022/03/28 07:04:31;;;;;;;15.25;8.55;;;;;;;9.91;40.20;100782.75;7847236;31;37414;-73
2022/03/28 07:08:47;;;;;;;17.10;8.20;;;;;;;10.15;38.96;100788.91;7847773;31;40016;-84
2022/03/28 07:13:04;;;;;;;15.60;8.65;;;;;;;10.03;41.37;100792.78;7846503;31;39868;-71
2022/03/28 07:17:20;;;;;;;24.12;8.35;;;;;;;10.33;40.50;100792.50;7847326;31;37576;-72
2022/03/28 07:21:36;;;;;;;14.48;8.55;;;;;;;10.83;37.63;100789.00;7847504;31;37024;-72
2022/03/28 07:25:52;;;;;;;30.42;8.95;;;;;;;10.35;37.47;100798.56;7847479;31;39708;-72
2022/03/28 07:30:09;;;;;;;14.23;7.85;;;;;;;10.45;36.56;100798.75;7846636;31;39547;-73
2022/03/28 07:34:35;;;;;;;16.08;8.10;;;;;;;10.81;36.09;100788.41;7846997;31;37978;-73
2022/03/28 07:38:51;;;;;;;15.88;8.32;;;;;;;10.82;36.48;100786.53;7846278;31;37769;-72
2022/03/28 07:43:08;;;;;;;17.65;8.70;;;;;;;11.15;35.94;100785.66;7847247;31;39363;-72
2022/03/28 07:47:25;;;;;;;25.40;8.80;;;;;;;11.40;36.33;100787.91;7846974;31;39876;-72
2022/03/28 07:51:41;;;;;;;16.00;8.27;;;;;;;11.39;36.31;100788.16;7847102;31;37869;-72
2022/03/28 07:55:57;;;;;;;18.33;6.90;;;;;;;11.60;35.99;100775.59;7847188;31;37748;-71
2022/03/28 08:00:16;;;;;;;14.80;6.15;;;;;;;12.01;33.03;100770.62;7847089;31;38742;-72
2022/03/28 08:04:45;;;;;;;18.60;6.97;;;;;;;12.35;29.58;100765.75;7846943;31;40897;-72
2022/03/28 08:09:01;;;;;;;17.62;7.40;;;;;;;12.70;32.31;100756.19;7846861;31;38760;-73
2022/03/28 08:13:17;;;;;;;14.23;7.43;;;;;;;12.59;31.79;100751.75;7846362;31;37076;-72
2022/03/28 08:17:35;;;;;;;15.15;7.07;;;;;;;12.52;31.61;100742.91;7846539;31;39945;-72
2022/03/28 08:21:52;;;;;;;15.57;6.50;;;;;;;13.19;30.68;100746.09;7845749;31;39028;-72
2022/03/28 08:26:08;;;;;;;14.45;6.75;;;;;;;13.54;30.33;100734.50;7846215;31;37592;-72
2022/03/28 08:30:24;;;;;;;13.15;6.70;;;;;;;13.68;28.82;100732.91;7831361;31;36697;-72
2022/03/28 08:34:41;;;;;;;14.00;6.55;;;;;;;13.31;28.29;100739.34;7830371;31;40050;-73
2022/03/28 08:38:57;;;;;;;12.75;7.00;;;;;;;13.44;27.79;100726.25;7822891;31;40005;-72
2022/03/28 08:43:17;;;;;;;13.55;6.93;;;;;;;13.81;26.70;100708.81;7843154;31;38674;-72
2022/03/28 08:47:34;;;;;;;15.88;7.25;;;;;;;14.15;26.59;100705.56;7846204;31;37244;-72
2022/03/28 08:52:10;;;;;;;14.43;6.75;;;;;;;13.71;26.84;100701.37;7844774;31;39324;-75
2022/03/28 08:56:26;;;;;;;12.80;6.37;;;;;;;14.00;29.21;100700.88;7845960;31;39766;-73
2022/03/28 09:00:57;;;;;;;13.45;6.45;;;;;;;14.72;26.54;100678.94;7820920;31;37910;-76
2022/03/28 09:05:16;;;;;;;24.98;7.47;;;;;;;14.69;26.57;100679.50;7838474;31;37111;-78
2022/03/28 09:09:34;;;;;;;15.23;6.70;;;;;;;14.93;27.08;100671.47;7831814;31;39307;-77
2022/03/28 09:13:50;;;;;;;15.73;6.20;;;;;;;15.35;25.38;100668.28;7825370;31;40217;-75
2022/03/28 09:18:07;;;;;;;11.95;5.87;;;;;;;16.03;25.16;100663.22;7845385;31;37996;-72
2022/03/28 09:22:26;;;;;;;21.20;6.43;;;;;;;15.69;25.21;100658.47;7845362;31;37739;-72
2022/03/28 09:26:42;;;;;;;14.82;5.72;;;;;;;16.43;24.57;100651.03;7845312;31;40057;-72
2022/03/28 09:31:14;;;;;;;13.43;5.62;;;;;;;16.86;24.01;100637.37;7845467;31;39621;-73
2022/03/28 09:35:30;;;;;;;12.82;5.72;;;;;;;16.99;23.90;100641.38;7846124;31;37598;-74
2022/03/28 09:39:46;;;;;;;14.90;6.10;;;;;;;17.52;24.07;100626.59;7848792;31;36694;-72
2022/03/28 09:44:02;;;;;;;12.20;5.97;;;;;;;17.92;23.45;100618.03;7847611;31;39139;-73
2022/03/28 09:48:22;;;;;;;14.55;5.87;;;;;;;17.75;22.79;100622.12;7848633;31;39974;-73
2022/03/28 09:52:42;;;;;;;15.23;6.43;;;;;;;18.22;23.08;100610.37;7848151;31;38434;-73
2022/03/28 09:57:12;;;;;;;12.30;5.75;;;;;;;18.50;22.41;100609.28;7847522;31;37013;-73
2022/03/28 10:01:35;;;;;;;14.48;5.53;;;;;;;19.08;21.82;100596.00;7848233;31;39260;-73
2022/03/28 10:05:53;;;;;;;10.90;5.60;;;;;;;19.46;21.48;100596.53;7848461;31;40644;-72
2022/03/28 10:10:09;;;;;;;10.07;5.62;;;;;;;19.98;21.51;100585.06;7827438;31;37938;-73
2022/03/28 10:14:26;;;;;;;13.23;5.30;;;;;;;19.95;20.27;100574.62;7820805;32;37665;-73
2022/03/28 10:18:46;;;;;;;11.50;5.30;;;;;;;20.11;20.42;100572.31;7819625;32;39987;-74
2022/03/28 10:23:03;;;;;;;8.95;4.85;;;;;;;20.68;20.25;100568.84;7820701;32;39730;-73
2022/03/28 10:27:21;;;;;;;8.05;4.55;;;;;;;20.89;19.86;100549.66;7819288;32;38842;-72
2022/03/28 10:32:02;;;;;;;9.82;5.05;;;;;;;21.41;20.51;100535.00;7822169;31;36880;-72
2022/03/28 10:36:28;;;;;;;19.62;5.70;;;;;;;21.49;21.36;100533.41;7848153;31;38353;-72
2022/03/28 10:41:05;;;;;;;11.77;5.05;;;;;;;21.54;20.78;100516.59;7846730;31;39707;-72
2022/03/28 10:45:21;;;;;;;9.00;5.18;;;;;;;21.69;21.10;100504.16;7847254;31;38711;-72
2022/03/28 10:49:40;;;;;;;10.63;5.68;;;;;;;21.70;21.10;100500.25;7847747;31;36982;-72
2022/03/28 10:54:03;;;;;;;11.27;5.32;;;;;;;22.40;21.53;100489.72;7833837;31;39293;-72
2022/03/28 10:58:28;;;;;;;9.48;4.80;;;;;;;22.40;21.62;100480.59;7846606;31;39654;-73
2022/03/28 11:02:44;;;;;;;8.32;4.53;;;;;;;23.37;20.70;100451.75;7846139;31;36990;-72
2022/03/28 11:07:07;;;;;;;10.60;4.75;;;;;;;23.57;20.62;100461.19;7846418;31;36677;-72
2022/03/28 11:11:27;;;;;;;;;;;;;;;23.44;19.72;100454.00;7846767;31;39185;-72
2022/03/28 11:15:44;;;;;;;13.98;4.82;;;;;;;23.81;19.12;100452.12;7847635;31;40206;-73
2022/03/28 11:20:12;;;;;;;11.82;5.22;;;;;;;23.57;19.06;100435.34;7847388;31;37579;-72
2022/03/28 11:24:54;;;;;;;11.23;4.95;;;;;;;24.34;19.04;100427.22;7847520;31;36808;-72
2022/03/28 11:29:10;;;;;;;10.07;5.18;;;;;;;24.74;19.33;100414.50;7846952;31;39705;-74
2022/03/28 11:33:46;;;;;;;8.30;4.68;;;;;;;24.50;18.76;100404.19;7846197;31;40580;-74
2022/03/28 11:38:04;;;;;;;8.52;5.25;;;;;;;24.73;17.72;100396.16;7847231;31;38841;-74
2022/03/28 11:42:31;;;;;;;9.48;5.37;;;;;;;24.77;17.85;100385.09;7847173;31;36882;-72
2022/03/28 11:46:55;;;;;;;8.30;4.70;;;;;;;24.72;17.93;100386.97;7846856;31;39981;-74
2022/03/28 11:51:16;;;;;;;11.82;5.10;;;;;;;24.88;17.77;100373.09;7846537;31;40777;-78
2022/03/28 11:55:32;;;;;;;9.38;5.03;;;;;;;25.80;16.54;100359.22;7845845;31;36954;-75
2022/03/28 11:59:51;;;;;;;8.65;4.40;;;;;;;24.80;17.08;100353.72;7846762;31;37836;-74
2022/03/28 12:04:07;;;;;;;11.57;6.10;;;;;;;25.35;17.13;100345.69;7846578;31;39161;-75
2022/03/28 12:08:24;;;;;;;12.43;5.97;;;;;;;25.14;16.99;100335.56;7846703;31;40113;-73
2022/03/28 12:12:40;;;;;;;11.30;6.00;;;;;;;25.86;16.90;100321.44;7838001;31;37577;-74
2022/03/28 12:16:57;;;;;;;14.75;4.93;;;;;;;24.89;17.60;100320.94;7845905;31;36701;-75
2022/03/28 12:21:13;;;;;;;10.13;5.15;;;;;;;24.69;17.69;100306.03;7845992;31;39227;-74
2022/03/28 12:25:43;;;;;;;11.90;4.65;;;;;;;24.67;17.76;100286.88;7818252;32;40074;-75
2022/03/28 12:29:59;;;;;;;15.00;4.87;;;;;;;24.24;18.12;100285.59;7818885;32;38013;-74
2022/03/28 12:34:19;;;;;;;12.90;5.15;;;;;;;24.98;17.90;100262.22;7823506;31;36949;-74
2022/03/28 12:38:41;;;;;;;14.07;4.68;;;;;;;25.23;17.62;100257.25;7846445;31;38945;-74
2022/03/28 12:42:59;;;;;;;14.50;6.70;;;;;;;25.53;17.09;100248.47;7845509;31;39877;-75
2022/03/28 12:47:17;;;;;;;11.43;5.30;;;;;;;26.19;17.23;100235.59;7845896;31;38693;-75
2022/03/28 12:51:40;;;;;;;12.10;4.80;;;;;;;27.10;16.12;100219.38;7820081;31;37242;-75
2022/03/28 12:56:13;;;;;;;17.20;7.60;;;;;;;26.96;16.41;100212.34;7822364;31;38907;-74
2022/03/28 13:00:31;;;;;;;8.73;4.47;;;;;;;27.53;14.58;100208.91;7823840;31;40947;-75
2022/03/28 13:04:49;;;;;;;9.88;4.75;;;;;;;26.95;15.19;100199.53;7844812;31;37993;-74
2022/03/28 13:09:05;;;;;;;9.65;5.07;;;;;;;26.82;15.86;100184.16;7848738;31;37094;-75
2022/03/28 13:13:34;;;;;;;8.85;4.80;;;;;;;27.41;15.49;100172.72;7847974;31;39248;-72
2022/03/28 13:18:08;;;;;;;13.60;4.60;;;;;;;28.05;15.40;100158.81;7833726;31;39641;-72
2022/03/28 13:22:36;;;;;;;11.35;4.65;;;;;;;27.96;14.89;100145.09;7847882;31;38619;-73
2022/03/28 13:28:01;;;;;;;9.40;4.60;;;;;;;28.50;14.65;100145.69;7846885;31;36733;-72
2022/03/28 13:31:28;;;;;;;12.50;5.82;;;;;;;26.67;15.87;100137.53;7847633;31;38891;-72
2022/03/28 13:35:46;;;;;;;10.48;5.43;;;;;;;26.54;16.68;100129.28;7848375;31;39719;-73
2022/03/28 13:40:02;;;;;;;18.42;7.85;;;;;;;27.14;15.60;100125.91;7848396;31;38617;-74
2022/03/28 13:44:18;;;;;;;12.20;5.35;;;;;;;26.52;15.89;100119.66;7846970;31;37075;-72
2022/03/28 13:48:34;;;;;;;22.62;8.55;;;;;;;26.92;15.71;100099.59;7848410;31;39248;-72
2022/03/28 13:52:50;;;;;;;31.45;13.70;;;;;;;25.61;16.89;100105.09;7848296;31;39972;-73
2022/03/28 13:57:06;;;;;;;33.95;14.50;;;;;;;26.16;16.55;100091.84;7847713;31;37931;-73
2022/03/28 14:01:27;;;;;;;13.00;5.53;;;;;;;25.74;16.93;100086.22;7847856;31;37143;-73
2022/03/28 14:05:51;;;;;;;8.50;4.55;;;;;;;25.68;16.80;100078.16;7846630;31;39751;-72
2022/03/28 14:10:07;;;;;;;14.75;7.03;;;;;;;26.31;16.25;100059.41;7847944;31;40620;-72
2022/03/28 14:14:25;;;;;;;11.30;4.93;;;;;;;26.48;16.44;100046.12;7847689;31;38055;-72
2022/03/28 14:18:41;;;;;;;13.95;6.35;;;;;;;25.67;17.21;100042.22;7846929;31;37010;-72
2022/03/28 14:22:57;;;;;;;11.12;5.32;;;;;;;25.85;16.76;100036.97;7847944;31;39883;-72
2022/03/28 14:27:15;;;;;;;8.55;4.72;;;;;;;25.94;16.77;100018.03;7847172;31;39890;-73
2022/03/28 14:31:31;;;;;;;10.70;4.53;;;;;;;26.71;15.87;100018.94;7847442;31;38178;-72
2022/03/28 14:35:47;;;;;;;10.57;4.35;;;;;;;26.79;16.32;100012.28;7833875;31;36712;-72
2022/03/28 14:40:05;;;;;;;7.57;4.10;;;;;;;26.43;16.15;100002.50;7845275;31;39952;-73
2022/03/28 14:44:21;;;;;;;7.70;4.32;;;;;;;26.45;16.21;99996.56;7847400;31;40716;-72
2022/03/28 14:48:38;;;;;;;8.50;3.78;;;;;;;25.88;16.63;99990.75;7846889;31;37956;-72
2022/03/28 14:52:55;;;;;;;11.82;4.30;;;;;;;24.94;17.59;99983.28;7846743;31;36614;-72
2022/03/28 14:57:12;;;;;;;10.90;4.07;;;;;;;26.24;16.56;99976.25;7847357;31;40034;-72
2022/03/28 15:01:28;;;;;;;9.15;4.07;;;;;;;25.83;17.12;99973.09;7846737;31;39602;-72
2022/03/28 15:05:45;;;;;;;8.00;4.12;;;;;;;26.35;16.23;99968.03;7847497;31;37869;-72
2022/03/28 15:10:04;;;;;;;10.30;4.57;;;;;;;26.55;16.13;99959.56;7846949;31;36544;-71
2022/03/28 15:14:20;;;;;;;9.32;4.57;;;;;;;25.51;16.98;99966.12;7846573;31;38887;-72
2022/03/28 15:18:37;;;;;;;6.70;4.50;;;;;;;26.52;15.95;99952.72;7846645;31;39974;-70
2022/03/28 15:22:55;;;;;;;10.40;4.78;;;;;;;25.52;16.98;99953.78;7846821;31;37923;-71
2022/03/28 15:27:11;;;;;;;9.65;4.10;;;;;;;25.52;17.30;99946.22;7846795;31;37177;-72
2022/03/28 15:31:28;;;;;;;8.02;3.97;;;;;;;26.15;16.66;99933.00;7845415;31;39424;-71
2022/03/28 15:35:44;;;;;;;9.52;4.85;;;;;;;26.04;16.40;99921.62;7847278;31;39593;-72
2022/03/28 15:40:02;;;;;;;10.25;5.15;;;;;;;26.08;16.19;99919.72;7846539;31;37563;-72
2022/03/28 15:44:18;;;;;;;10.60;4.25;;;;;;;24.67;17.59;99918.94;7846891;31;38217;-71
2022/03/28 15:48:34;;;;;;;9.85;4.68;;;;;;;25.80;16.84;99912.44;7846513;31;39121;-72
2022/03/28 15:52:50;;;;;;;10.98;4.50;;;;;;;26.01;16.33;99912.03;7846290;31;39979;-71
2022/03/28 15:57:06;;;;;;;8.82;4.93;;;;;;;25.73;16.72;99901.13;7845338;31;38318;-71
2022/03/28 16:01:39;;;;;;;9.88;5.05;;;;;;;25.78;16.60;99898.03;7844957;31;36417;-70
2022/03/28 16:05:56;;;;;;;11.40;5.22;;;;;;;25.85;16.73;99895.37;7846101;31;40100;-70
2022/03/28 16:10:13;;;;;;;10.60;4.93;;;;;;;25.96;16.98;99881.63;7846028;31;40758;-70
2022/03/28 16:14:30;;;;;;;17.00;5.25;;;;;;;26.64;16.42;99878.25;7845475;31;38726;-70
2022/03/28 16:18:46;;;;;;;10.35;5.30;;;;;;;28.57;14.27;99870.16;7845826;31;37630;-71
2022/03/28 16:23:02;;;;;;;11.85;6.03;;;;;;;29.83;13.27;99865.75;7846108;31;38878;-70
2022/03/28 16:27:18;;;;;;;10.02;5.82;;;;;;;30.11;13.11;99864.13;7846176;31;39568;-71
2022/03/28 16:31:34;;;;;;;12.25;6.87;;;;;;;29.21;13.68;99847.19;7845269;31;37594;-70
2022/03/28 16:35:53;;;;;;;12.07;5.82;;;;;;;29.67;13.43;99846.44;7846490;31;35254;-74
2022/03/28 16:40:09;;;;;;;10.40;6.57;;;;;;;29.25;13.49;99847.19;7845387;31;39967;-74
2022/03/28 16:44:25;;;;;;;17.55;6.53;;;;;;;29.37;13.48;99844.81;7845864;31;39998;-74
2022/03/28 16:48:41;;;;;;;19.60;8.15;;;;;;;28.08;14.52;99845.00;7837659;31;266049;-73
2022/03/28 16:52:57;;;;;;;15.60;7.37;;;;;;;27.23;15.44;99843.00;7845341;31;37053;-74
2022/03/28 16:57:13;;;;;;;18.95;8.82;;;;;;;26.64;15.88;99839.13;7846192;31;40024;-74
2022/03/28 17:01:30;;;;;;;12.60;6.32;;;;;;;25.74;16.79;99841.34;7844498;31;40842;-73
2022/03/28 17:05:46;;;;;;;11.27;5.85;;;;;;;24.50;18.86;99847.66;7845639;31;37624;-73
2022/03/28 17:10:06;;;;;;;22.37;8.07;;;;;;;24.50;18.63;99849.66;7844611;31;36648;-74
2022/03/28 17:14:26;;;;;;;15.63;6.37;;;;;;;23.96;19.35;99840.87;7845103;31;39197;-72
2022/03/28 17:18:42;;;;;;;16.42;7.10;;;;;;;23.42;19.65;99850.63;7845356;31;40780;-73
2022/03/28 17:22:58;;;;;;;10.48;6.53;;;;;;;23.21;20.06;99853.63;7843277;31;39059;-73
2022/03/28 17:27:14;;;;;;;13.65;6.07;;;;;;;22.97;20.12;99842.63;7845220;31;36719;-73
2022/03/28 17:31:30;;;;;;;16.50;7.97;;;;;;;22.87;20.49;99846.72;7843942;31;38959;-75
2022/03/28 17:35:46;;;;;;;17.60;8.88;;;;;;;22.38;21.08;99844.88;7844667;31;40547;-74
2022/03/28 17:40:03;;;;;;;15.60;8.80;;;;;;;22.20;21.12;99846.28;7844630;31;38479;-74
2022/03/28 17:44:22;;;;;;;15.68;8.45;;;;;;;22.04;21.40;99848.94;7844053;31;37086;-73
2022/03/28 17:48:39;;;;;;;16.00;8.73;;;;;;;21.66;21.90;99850.91;7844492;31;39184;-74
2022/03/28 17:52:57;;;;;;;14.05;7.72;;;;;;;21.69;21.81;99843.84;7845060;31;40078;-75
2022/03/28 17:57:14;;;;;;;15.57;8.05;;;;;;;21.29;22.49;99853.56;7823612;31;37955;-74
2022/03/28 18:01:30;;;;;;;17.20;8.60;;;;;;;21.23;22.57;99851.34;7844399;31;36989;-72
2022/03/28 18:05:47;;;;;;;17.48;7.80;;;;;;;20.86;23.37;99857.56;7848376;31;40133;-70
2022/03/28 18:10:07;;;;;;;17.30;7.90;;;;;;;20.92;23.13;99856.22;7847557;31;40849;-70
2022/03/28 18:14:23;;;;;;;17.02;6.87;;;;;;;20.79;23.56;99852.56;7848320;31;37888;-69
2022/03/28 18:18:39;;;;;;;13.73;6.85;;;;;;;20.59;24.00;99847.81;7848424;31;37002;-69
2022/03/28 18:22:55;;;;;;;16.77;6.95;;;;;;;20.39;24.32;99853.00;7848364;31;39214;-69
2022/03/28 18:27:12;;;;;;;16.95;7.40;;;;;;;20.31;24.44;99847.53;7848140;31;40834;-69
2022/03/28 18:31:29;;;;;;;16.75;7.07;;;;;;;20.09;24.82;99843.91;7847801;31;38824;-69
2022/03/28 18:35:48;;;;;;;14.45;7.75;;;;;;;19.79;25.27;99843.91;7848196;31;37057;-68
2022/03/28 18:40:09;;;;;;;13.68;7.03;;;;;;;19.72;25.46;99848.31;7848208;31;39125;-69
2022/03/28 18:44:25;;;;;;;10.38;6.65;;;;;;;19.49;25.95;99835.53;7848000;31;39919;-69
2022/03/28 18:48:42;;;;;;;11.63;6.35;;;;;;;19.43;25.92;99845.16;7847918;31;38001;-69
2022/03/28 18:52:58;;;;;;;10.80;6.10;;;;;;;19.41;25.79;99833.63;7847596;31;37871;-69
2022/03/28 18:57:14;;;;;;;13.70;7.03;;;;;;;19.19;26.06;99831.88;7847942;31;39285;-69
2022/03/28 19:01:30;;;;;;;11.77;6.90;;;;;;;18.91;26.57;99839.75;7847634;31;39942;-70
2022/03/28 19:05:46;;;;;;;14.73;7.05;;;;;;;19.22;25.99;99824.91;7845676;31;37385;-69
2022/03/28 19:10:04;;;;;;;13.40;6.93;;;;;;;18.98;26.30;99825.44;7847758;31;37010;-69
2022/03/28 19:14:20;;;;;;;18.77;7.97;;;;;;;19.06;26.09;99825.41;7847778;31;38890;-69
2022/03/28 19:18:36;;;;;;;13.07;7.35;;;;;;;18.75;26.68;99818.13;7847774;31;39656;-69
2022/03/28 19:22:57;;;;;;;11.77;6.50;;;;;;;18.71;26.69;99827.38;7847634;31;37767;-69
2022/03/28 19:27:15;;;;;;;12.50;6.75;;;;;;;18.62;26.86;99818.28;7847515;31;35960;-68
2022/03/28 19:31:32;;;;;;;13.43;7.15;;;;;;;18.46;27.03;99821.53;7846788;31;38963;-69
2022/03/28 19:35:49;;;;;;;15.10;6.75;;;;;;;18.62;26.79;99818.28;7847368;31;39623;-68
2022/03/28 19:40:07;;;;;;;14.95;7.12;;;;;;;18.23;27.38;99812.59;7847679;31;35586;-69
2022/03/28 19:44:23;;;;;;;13.23;7.10;;;;;;;18.13;27.65;99810.13;7847293;31;38590;-69
2022/03/28 19:48:39;;;;;;;12.25;6.65;;;;;;;18.07;27.79;99803.13;7829729;31;39987;-69
2022/03/28 19:52:56;;;;;;;14.18;6.07;;;;;;;17.91;28.06;99800.03;7845804;31;39849;-69